createdAt,value
2022-11-29T00:01:43.886Z,99824.91
2022-11-29T00:04:12.651Z,99832.06
2022-11-29T00:06:40.789Z,99825.19
2022-11-29T00:09:14.383Z,99833.44
2022-11-29T00:12:01.726Z,99833.09
2022-11-29T00:14:30.410Z,99836.47
2022-11-29T00:17:02.416Z,99838.53
2022-11-29T00:19:32.256Z,99842.03
2022-11-29T00:22:01.482Z,99844.44
2022-11-29T00:24:33.779Z,99848.50
2022-11-29T00:27:03.483Z,99839.00
2022-11-29T00:29:31.893Z,99837.47
2022-11-29T00:32:00.659Z,99842.75
2022-11-29T00:34:29.514Z,99834.50
2022-11-29T00:36:57.994Z,99850.06
2022-11-29T00:39:26.661Z,99847.88
2022-11-29T00:41:56.895Z,99849.25
2022-11-29T00:44:25.117Z,99848.97
2022-11-29T00:46:53.400Z,99846.91
2022-11-29T00:49:21.829Z,99849.31
2022-11-29T00:51:50.144Z,99856.38
2022-11-29T00:54:19.173Z,99854.16
2022-11-29T00:56:47.832Z,99854.97
2022-11-29T00:59:17.588Z,99846.03
2022-11-29T01:01:45.833Z,99851.66
2022-11-29T01:04:14.162Z,99844.28
2022-11-29T01:06:42.400Z,99844.94
2022-11-29T01:09:10.642Z,99847.78
2022-11-29T01:11:38.770Z,99848.28
2022-11-29T01:14:07.135Z,99843.69
2022-11-29T01:16:36.887Z,99845.16
2022-11-29T01:19:07.429Z,99853.41
2022-11-29T01:21:35.721Z,99858.06
2022-11-29T01:24:04.204Z,99860.88
2022-11-29T01:26:33.255Z,99859.66
2022-11-29T01:29:01.799Z,99862.97
2022-11-29T01:31:32.277Z,99865.13
2022-11-29T01:34:04.234Z,99864.56
2022-11-29T01:36:32.926Z,99862.41
2022-11-29T01:39:02.573Z,99862.47
2022-11-29T01:41:34.067Z,99866.50
2022-11-29T01:44:07.137Z,99868.94
2022-11-29T01:46:41.605Z,99874.34
2022-11-29T01:49:17.166Z,99877.50
2022-11-29T01:51:51.890Z,99877.78
2022-11-29T01:54:21.061Z,99875.03
2022-11-29T01:56:51.335Z,99882.56
2022-11-29T01:59:24.600Z,99886.16
2022-11-29T02:01:53.144Z,99899.56
2022-11-29T02:04:22.756Z,99889.53
2022-11-29T02:06:51.333Z,99891.75
2022-11-29T02:09:22.541Z,99880.78
2022-11-29T02:12:11.405Z,99882.53
2022-11-29T02:15:19.776Z,99886.25
2022-11-29T02:18:02.500Z,99874.47
2022-11-29T02:21:12.917Z,99873.31
2022-11-29T02:24:25.566Z,99871.63
2022-11-29T02:27:38.355Z,99874.66
2022-11-29T02:30:20.599Z,99878.38
2022-11-29T02:33:58.902Z,99882.22
2022-11-29T02:36:53.207Z,99882.88
2022-11-29T02:40:01.699Z,99883.03
2022-11-29T02:43:10.225Z,99888.69
2022-11-29T02:45:57.602Z,99883.88
2022-11-29T02:48:51.038Z,99884.97
2022-11-29T02:51:27.228Z,99887.16
2022-11-29T02:54:03.148Z,99889.41
2022-11-29T02:56:38.939Z,99891.69
2022-11-29T02:59:16.732Z,99891.19
2022-11-29T03:01:58.992Z,99896.75
2022-11-29T03:04:35.049Z,99903.06
2022-11-29T03:07:14.460Z,99906.91
2022-11-29T03:09:48.704Z,99903.19
2022-11-29T03:12:28.508Z,99908.53
2022-11-29T03:15:08.703Z,99901.19
2022-11-29T03:17:49.492Z,99913.00
2022-11-29T03:20:36.589Z,99915.06
2022-11-29T03:23:23.005Z,99914.31
2022-11-29T03:25:58.814Z,99920.09
2022-11-29T03:28:32.048Z,99924.59
2022-11-29T03:31:11.720Z,99932.59
2022-11-29T03:33:51.989Z,99926.44
2022-11-29T03:36:34.802Z,99924.91
2022-11-29T03:39:10.728Z,99928.50
2022-11-29T03:41:46.540Z,99930.13
2022-11-29T03:44:19.584Z,99935.47
2022-11-29T03:46:58.259Z,99934.53
2022-11-29T03:49:33.520Z,99947.69
2022-11-29T03:52:12.274Z,99944.53
2022-11-29T03:54:56.573Z,99942.59
2022-11-29T03:57:35.665Z,99948.78
2022-11-29T04:00:08.844Z,99953.44
2022-11-29T04:03:30.401Z,99949.72
2022-11-29T04:06:20.031Z,99951.66
2022-11-29T04:09:21.596Z,99961.47
2022-11-29T04:12:36.304Z,99964.16
2022-11-29T04:15:51.946Z,99975.56
2022-11-29T04:19:21.847Z,99965.84
2022-11-29T04:22:43.657Z,99966.53
2022-11-29T04:26:04.370Z,99969.44
2022-11-29T04:29:25.057Z,99974.59
2022-11-29T04:32:17.446Z,99972.53
2022-11-29T04:35:11.597Z,99979.22
2022-11-29T04:38:07.849Z,99976.06
2022-11-29T04:41:02.346Z,99980.56
2022-11-29T04:43:52.838Z,99985.81
2022-11-29T04:46:56.249Z,99991.03
2022-11-29T04:49:37.364Z,99991.97
2022-11-29T04:52:29.624Z,99994.19
2022-11-29T04:55:09.212Z,99996.38
2022-11-29T04:57:48.648Z,100002.25
2022-11-29T05:00:22.055Z,99999.78
2022-11-29T05:02:58.591Z,100001.59
2022-11-29T05:05:36.397Z,100005.84
2022-11-29T05:08:25.463Z,100007.63
2022-11-29T05:11:06.551Z,100008.72
2022-11-29T05:13:47.062Z,100016.53
2022-11-29T05:16:38.582Z,100012.97
2022-11-29T05:19:39.331Z,100024.19
2022-11-29T05:22:24.935Z,100027.25
2022-11-29T05:25:08.182Z,100023.94
2022-11-29T05:27:47.501Z,100027.09
2022-11-29T05:30:21.729Z,100030.41
2022-11-29T05:33:05.985Z,100028.63
2022-11-29T05:35:52.484Z,100033.97
2022-11-29T05:38:51.352Z,100034.09
2022-11-29T05:41:41.924Z,100040.25
2022-11-29T05:44:16.716Z,100038.34
2022-11-29T05:46:56.179Z,100044.78
2022-11-29T05:49:39.206Z,100038.75
2022-11-29T05:52:24.963Z,100045.63
2022-11-29T05:55:11.406Z,100048.78
2022-11-29T05:57:48.323Z,100046.00
2022-11-29T06:00:19.403Z,100045.63
2022-11-29T06:03:00.449Z,100053.16
2022-11-29T06:05:37.676Z,100044.63
2022-11-29T06:08:13.448Z,100052.75
2022-11-29T06:10:53.757Z,100051.78
2022-11-29T06:13:36.075Z,100058.78
2022-11-29T06:16:36.334Z,100068.38
2022-11-29T06:19:52.990Z,100072.47
2022-11-29T06:22:56.666Z,100084.13
2022-11-29T06:25:47.100Z,100081.78
2022-11-29T06:28:31.536Z,100085.91
2022-11-29T06:31:13.076Z,100086.53
2022-11-29T06:33:56.798Z,100088.31
2022-11-29T06:36:32.977Z,100094.31
2022-11-29T06:39:02.153Z,100098.91
2022-11-29T06:41:31.363Z,100099.56
2022-11-29T06:44:00.465Z,100110.38
2022-11-29T06:46:45.907Z,100109.19
2022-11-29T06:49:22.760Z,100110.00
2022-11-29T06:52:08.299Z,100109.88
2022-11-29T06:54:56.005Z,100115.19
2022-11-29T06:57:35.887Z,100118.25
2022-11-29T07:00:12.044Z,100116.03
2022-11-29T07:03:07.883Z,100123.88
2022-11-29T07:05:37.076Z,100124.22
2022-11-29T07:08:14.133Z,100128.41
2022-11-29T07:10:43.909Z,100133.22
2022-11-29T07:13:14.650Z,100136.16
2022-11-29T07:15:50.154Z,100134.34
2022-11-29T07:18:28.823Z,100148.63
2022-11-29T07:21:12.682Z,100144.81
2022-11-29T07:23:52.478Z,100148.38
2022-11-29T07:26:30.443Z,100156.72
2022-11-29T07:29:21.042Z,100162.72
2022-11-29T07:32:04.374Z,100161.22
2022-11-29T07:34:41.503Z,100165.56
2022-11-29T07:37:22.032Z,100164.16
2022-11-29T07:40:00.642Z,100177.53
2022-11-29T07:42:42.923Z,100178.72
2022-11-29T07:45:19.322Z,100173.22
2022-11-29T07:47:49.823Z,100186.38
2022-11-29T07:50:18.851Z,100180.13
2022-11-29T07:52:47.964Z,100181.31
2022-11-29T07:55:21.251Z,100183.53
2022-11-29T07:57:50.681Z,100182.53
2022-11-29T08:00:20.922Z,100183.09
2022-11-29T08:02:51.843Z,100181.41
2022-11-29T08:05:20.373Z,100192.38
2022-11-29T08:07:48.855Z,100186.91
2022-11-29T08:10:19.015Z,100191.28
2022-11-29T08:12:50.689Z,100194.44
2022-11-29T08:15:20.570Z,100200.19
2022-11-29T08:17:49.257Z,100197.03
2022-11-29T08:20:19.582Z,100201.41
2022-11-29T08:22:56.050Z,100208.88
2022-11-29T08:25:28.507Z,100204.63
2022-11-29T08:27:57.270Z,100198.66
2022-11-29T08:30:26.081Z,100197.63
2022-11-29T08:32:54.488Z,100198.75
2022-11-29T08:35:25.402Z,100205.84
2022-11-29T08:37:55.132Z,100210.72
2022-11-29T08:40:25.305Z,100205.88
2022-11-29T08:42:57.795Z,100214.91
2022-11-29T08:45:26.184Z,100218.06
2022-11-29T08:47:54.478Z,100218.69
2022-11-29T08:50:22.796Z,100219.78
2022-11-29T08:53:21.547Z,100222.94
2022-11-29T08:55:51.174Z,100215.72
2022-11-29T08:58:21.399Z,100223.78
2022-11-29T09:00:49.831Z,100225.19
2022-11-29T09:03:35.563Z,100224.56
2022-11-29T09:06:12.252Z,100224.75
2022-11-29T09:08:43.622Z,100228.41
2022-11-29T09:11:17.754Z,100233.97
2022-11-29T09:13:48.856Z,100225.84
2022-11-29T09:16:20.799Z,100236.84
2022-11-29T09:18:52.156Z,100238.06
2022-11-29T09:21:20.718Z,100240.78
2022-11-29T09:23:48.973Z,100240.22
2022-11-29T09:26:21.328Z,100244.13
2022-11-29T09:28:49.922Z,100250.78
2022-11-29T09:31:20.033Z,100249.94
2022-11-29T09:33:49.071Z,100257.38
2022-11-29T09:36:17.548Z,100262.47
2022-11-29T09:38:45.921Z,100255.97
2022-11-29T09:41:48.544Z,100263.00
2022-11-29T09:44:29.639Z,100265.88
2022-11-29T09:47:06.780Z,100272.19
2022-11-29T09:49:56.598Z,100276.22
2022-11-29T09:52:42.907Z,100281.09
2022-11-29T09:55:39.435Z,100281.63
2022-11-29T09:58:16.570Z,100281.38
2022-11-29T10:00:51.332Z,100274.97
2022-11-29T10:03:26.534Z,100279.91
2022-11-29T10:06:00.867Z,100287.66
2022-11-29T10:08:35.075Z,100279.16
2022-11-29T10:11:18.274Z,100288.47
2022-11-29T10:13:53.443Z,100290.28
2022-11-29T10:16:29.927Z,100285.59
2022-11-29T10:19:08.348Z,100281.38
2022-11-29T10:21:39.566Z,100284.78
2022-11-29T10:24:17.387Z,100284.78
2022-11-29T10:26:46.735Z,100286.41
2022-11-29T10:29:18.106Z,100287.13
2022-11-29T10:31:49.588Z,100284.63
2022-11-29T10:34:21.631Z,100283.97
2022-11-29T10:36:53.641Z,100283.78
2022-11-29T10:39:28.661Z,100281.91
2022-11-29T10:42:00.935Z,100282.53
2022-11-29T10:44:33.004Z,100282.78
2022-11-29T10:47:07.810Z,100284.59
2022-11-29T10:49:40.187Z,100287.78
2022-11-29T10:52:19.242Z,100284.25
2022-11-29T10:54:49.684Z,100292.59
2022-11-29T10:57:20.876Z,100290.41
2022-11-29T11:00:04.515Z,100287.69
2022-11-29T11:02:33.847Z,100282.78
2022-11-29T11:05:03.174Z,100285.25
2022-11-29T11:07:35.537Z,100271.78
2022-11-29T11:10:19.601Z,100283.63
2022-11-29T11:13:04.006Z,100273.75
2022-11-29T11:15:33.958Z,100270.22
2022-11-29T11:18:05.502Z,100265.81
2022-11-29T11:20:36.155Z,100276.81
2022-11-29T11:23:08.695Z,100269.53
2022-11-29T11:25:40.000Z,100270.75
2022-11-29T11:28:22.453Z,100273.75
2022-11-29T11:30:56.700Z,100271.88
2022-11-29T11:33:28.601Z,100264.69
2022-11-29T11:36:07.609Z,100275.41
2022-11-29T11:38:37.183Z,100274.34
2022-11-29T11:41:45.850Z,100275.28
2022-11-29T11:44:48.702Z,100275.56
2022-11-29T11:47:21.958Z,100281.38
2022-11-29T11:49:57.059Z,100279.97
2022-11-29T11:52:33.803Z,100281.75
2022-11-29T11:55:23.226Z,100283.94
2022-11-29T11:58:07.651Z,100285.03
2022-11-29T12:01:03.389Z,100281.34
2022-11-29T12:03:52.513Z,100287.25
2022-11-29T12:06:38.240Z,100280.66
2022-11-29T12:09:18.763Z,100283.38
2022-11-29T12:12:00.083Z,100286.97
2022-11-29T12:14:41.331Z,100287.13
2022-11-29T12:17:21.013Z,100291.34
2022-11-29T12:20:18.067Z,100298.78
2022-11-29T12:23:04.060Z,100301.91
2022-11-29T12:25:41.322Z,100296.59
2022-11-29T12:28:19.827Z,100303.44
2022-11-29T12:31:03.048Z,100305.22
2022-11-29T12:33:44.572Z,100298.22
2022-11-29T12:36:25.963Z,100309.22
2022-11-29T12:39:19.393Z,100318.94
2022-11-29T12:41:58.943Z,100312.47
2022-11-29T12:44:42.859Z,100320.44
2022-11-29T12:47:40.185Z,100316.09
2022-11-29T12:50:40.241Z,100324.88
2022-11-29T12:53:27.848Z,100324.34
2022-11-29T12:56:10.847Z,100339.56
2022-11-29T12:58:55.875Z,100332.41
2022-11-29T13:01:37.618Z,100338.44
2022-11-29T13:04:22.633Z,100333.69
2022-11-29T13:06:58.830Z,100333.34
2022-11-29T13:09:54.102Z,100346.53
2022-11-29T13:12:29.170Z,100350.81
2022-11-29T13:15:05.968Z,100353.31
2022-11-29T13:17:41.050Z,100344.38
2022-11-29T13:20:24.988Z,100345.75
2022-11-29T13:22:58.440Z,100344.25
2022-11-29T13:25:35.108Z,100356.25
2022-11-29T13:28:07.016Z,100350.75
2022-11-29T13:30:36.658Z,100345.72
2022-11-29T13:33:15.375Z,100354.91
2022-11-29T13:35:51.531Z,100355.09
2022-11-29T13:38:27.355Z,100350.78
2022-11-29T13:41:03.793Z,100353.09
2022-11-29T13:43:40.548Z,100359.59
2022-11-29T13:46:24.492Z,100361.91
2022-11-29T13:48:54.907Z,100366.16
2022-11-29T13:51:32.759Z,100357.69
2022-11-29T13:54:04.574Z,100363.41
2022-11-29T13:56:43.210Z,100362.53
2022-11-29T13:59:20.344Z,100361.50
2022-11-29T14:01:53.010Z,100363.78
2022-11-29T14:04:28.048Z,100363.84
2022-11-29T14:07:06.499Z,100362.69
2022-11-29T14:09:59.602Z,100370.56
2022-11-29T14:12:36.956Z,100368.06
2022-11-29T14:15:22.428Z,100379.22
2022-11-29T14:17:56.266Z,100373.84
2022-11-29T14:20:59.264Z,100372.53
2022-11-29T14:23:42.437Z,100380.06
2022-11-29T14:26:30.597Z,100379.59
2022-11-29T14:29:01.549Z,100375.94
2022-11-29T14:31:55.246Z,100374.63
2022-11-29T14:34:43.424Z,100373.03
2022-11-29T14:37:49.571Z,100380.22
2022-11-29T14:40:30.028Z,100382.50
2022-11-29T14:43:00.590Z,100378.13
2022-11-29T14:45:33.957Z,100380.09
2022-11-29T14:48:03.455Z,100377.72
2022-11-29T14:50:36.495Z,100378.38
2022-11-29T14:53:06.962Z,100378.84
2022-11-29T14:55:38.263Z,100382.06
2022-11-29T14:58:24.565Z,100391.16
2022-11-29T15:01:11.050Z,100384.16
2022-11-29T15:03:51.105Z,100389.75
2022-11-29T15:06:27.856Z,100393.72
2022-11-29T15:09:04.655Z,100391.59
2022-11-29T15:11:51.486Z,100394.66
2022-11-29T15:14:33.262Z,100394.13
2022-11-29T15:17:24.447Z,100393.72
2022-11-29T15:20:19.126Z,100393.59
2022-11-29T15:22:52.361Z,100401.84
2022-11-29T15:25:23.762Z,100409.94
2022-11-29T15:27:54.899Z,100401.47
2022-11-29T15:30:34.201Z,100399.66
2022-11-29T15:33:08.330Z,100406.59
2022-11-29T15:35:38.175Z,100399.63
2022-11-29T15:38:06.979Z,100401.84
2022-11-29T15:40:39.739Z,100407.38
2022-11-29T15:43:22.312Z,100414.00
2022-11-29T15:45:52.211Z,100411.22
2022-11-29T15:48:24.064Z,100416.34
2022-11-29T15:51:09.446Z,100423.50
2022-11-29T15:53:41.862Z,100423.91
2022-11-29T15:56:19.111Z,100423.47
2022-11-29T15:58:49.123Z,100428.53
2022-11-29T16:01:22.213Z,100437.72
2022-11-29T16:03:56.677Z,100441.38
2022-11-29T16:06:30.765Z,100444.13
2022-11-29T16:08:59.750Z,100451.00
2022-11-29T16:11:32.340Z,100434.44
2022-11-29T16:14:14.317Z,100441.19
2022-11-29T16:16:45.364Z,100440.75
2022-11-29T16:19:30.694Z,100442.78
2022-11-29T16:22:22.548Z,100438.25
2022-11-29T16:25:06.613Z,100435.22
2022-11-29T16:27:37.108Z,100433.00
2022-11-29T16:30:07.639Z,100440.00
2022-11-29T16:32:38.869Z,100430.59
2022-11-29T16:35:22.005Z,100434.78
2022-11-29T16:37:50.551Z,100424.53
2022-11-29T16:40:23.712Z,100425.00
2022-11-29T16:43:23.666Z,100426.19
2022-11-29T16:46:33.665Z,100431.59
2022-11-29T16:49:04.769Z,100428.44
2022-11-29T16:51:47.962Z,100438.31
2022-11-29T16:54:27.710Z,100438.19
2022-11-29T16:56:57.940Z,100441.81
2022-11-29T16:59:28.583Z,100436.38
2022-11-29T17:01:57.519Z,100450.94
2022-11-29T17:04:26.461Z,100450.66
2022-11-29T17:06:57.399Z,100459.91
2022-11-29T17:09:28.307Z,100453.22
2022-11-29T17:11:59.676Z,100464.03
2022-11-29T17:14:28.342Z,100466.75
2022-11-29T17:16:57.045Z,100468.84
2022-11-29T17:19:26.055Z,100476.41
2022-11-29T17:21:54.239Z,100478.75
2022-11-29T17:24:25.028Z,100472.88
2022-11-29T17:26:53.222Z,100482.13
2022-11-29T17:29:21.377Z,100482.34
2022-11-29T17:31:53.150Z,100476.38
2022-11-29T17:34:21.611Z,100482.00
2022-11-29T17:36:51.099Z,100488.28
2022-11-29T17:39:21.770Z,100485.88
2022-11-29T17:41:51.525Z,100489.63
2022-11-29T17:44:20.745Z,100487.47
2022-11-29T17:46:49.026Z,100485.88
2022-11-29T17:49:18.558Z,100490.22
2022-11-29T17:51:52.380Z,100492.75
2022-11-29T17:54:21.909Z,100501.19
2022-11-29T17:56:51.963Z,100499.59
2022-11-29T17:59:20.395Z,100497.84
2022-11-29T18:01:48.861Z,100499.34
2022-11-29T18:04:17.361Z,100497.72
2022-11-29T18:06:49.595Z,100501.38
2022-11-29T18:09:19.290Z,100504.91
2022-11-29T18:11:50.454Z,100507.13
2022-11-29T18:14:23.683Z,100509.63
2022-11-29T18:16:53.318Z,100513.00
2022-11-29T18:19:23.736Z,100511.44
2022-11-29T18:21:52.931Z,100514.84
2022-11-29T18:24:21.374Z,100502.25
2022-11-29T18:26:49.721Z,100501.56
2022-11-29T18:29:20.084Z,100501.66
2022-11-29T18:31:48.853Z,100502.28
2022-11-29T18:34:17.225Z,100496.50
2022-11-29T18:36:48.523Z,100499.38
2022-11-29T18:39:19.104Z,100505.44
2022-11-29T18:41:49.499Z,100501.84
2022-11-29T18:44:22.044Z,100505.41
2022-11-29T18:46:50.294Z,100509.97
2022-11-29T18:49:19.299Z,100517.78
2022-11-29T18:51:49.018Z,100513.94
2022-11-29T18:54:19.677Z,100510.38
2022-11-29T18:56:51.592Z,100511.69
2022-11-29T18:59:22.894Z,100507.06
2022-11-29T19:01:51.263Z,100513.50
2022-11-29T19:04:21.598Z,100509.28
2022-11-29T19:06:50.295Z,100511.84
2022-11-29T19:09:21.641Z,100512.94
2022-11-29T19:11:50.439Z,100516.25
2022-11-29T19:14:20.910Z,100515.50
2022-11-29T19:16:51.079Z,100509.47
2022-11-29T19:19:19.907Z,100518.19
2022-11-29T19:21:49.013Z,100522.41
2022-11-29T19:24:19.437Z,100515.69
2022-11-29T19:26:50.237Z,100518.13
2022-11-29T19:29:20.307Z,100508.19
2022-11-29T19:31:50.195Z,100522.75
2022-11-29T19:34:18.358Z,100520.63
2022-11-29T19:36:46.496Z,100520.72
2022-11-29T19:39:17.181Z,100511.97
2022-11-29T19:41:47.460Z,100520.88
2022-11-29T19:44:15.702Z,100521.47
2022-11-29T19:46:48.601Z,100522.06
2022-11-29T19:49:19.122Z,100519.47
2022-11-29T19:51:47.324Z,100519.94
2022-11-29T19:54:15.523Z,100524.31
2022-11-29T19:56:43.854Z,100525.88
2022-11-29T19:59:14.711Z,100533.06
2022-11-29T20:01:44.678Z,100526.69
2022-11-29T20:04:16.645Z,100528.22
2022-11-29T20:06:46.865Z,100533.31
2022-11-29T20:09:15.411Z,100534.84
2022-11-29T20:11:44.746Z,100543.84
2022-11-29T20:14:14.491Z,100542.06
2022-11-29T20:16:45.891Z,100537.34
2022-11-29T20:19:18.109Z,100543.13
2022-11-29T20:21:48.720Z,100542.19
2022-11-29T20:24:19.310Z,100541.22
2022-11-29T20:26:49.703Z,100542.44
2022-11-29T20:29:19.212Z,100534.84
2022-11-29T20:31:50.950Z,100537.81
2022-11-29T20:34:20.979Z,100533.78
2022-11-29T20:37:25.718Z,100538.53
2022-11-29T20:40:02.839Z,100546.66
2022-11-29T20:42:53.895Z,100545.50
2022-11-29T20:45:25.279Z,100542.59
2022-11-29T20:47:59.538Z,100540.09
2022-11-29T20:50:31.907Z,100545.66
2022-11-29T20:53:17.974Z,100543.53
2022-11-29T20:55:48.255Z,100544.03
2022-11-29T20:58:19.357Z,100548.78
2022-11-29T21:00:48.248Z,100549.16
2022-11-29T21:03:19.748Z,100549.25
2022-11-29T21:05:48.472Z,100544.97
2022-11-29T21:08:18.857Z,100548.88
2022-11-29T21:10:47.263Z,100548.41
2022-11-29T21:13:18.380Z,100550.88
2022-11-29T21:15:48.157Z,100552.91
2022-11-29T21:18:23.647Z,100551.94
2022-11-29T21:21:08.761Z,100557.66
2022-11-29T21:23:55.784Z,100546.88
2022-11-29T21:26:28.729Z,100553.38
2022-11-29T21:29:17.219Z,100555.00
2022-11-29T21:31:46.786Z,100547.34
2022-11-29T21:34:16.895Z,100557.97
2022-11-29T21:36:47.583Z,100563.63
2022-11-29T21:39:17.783Z,100560.69
2022-11-29T21:41:46.143Z,100561.38
2022-11-29T21:44:15.672Z,100562.81
2022-11-29T21:46:45.055Z,100569.16
2022-11-29T21:49:13.307Z,100571.59
2022-11-29T21:51:46.028Z,100571.09
2022-11-29T21:54:14.117Z,100572.47
2022-11-29T21:56:42.551Z,100577.44
2022-11-29T21:59:10.830Z,100583.56
2022-11-29T22:01:39.245Z,100584.97
2022-11-29T22:04:07.491Z,100591.75
2022-11-29T22:06:36.932Z,100588.03
2022-11-29T22:09:07.634Z,100593.22
2022-11-29T22:11:36.431Z,100597.56
2022-11-29T22:14:15.899Z,100592.78
2022-11-29T22:16:49.031Z,100597.00
2022-11-29T22:19:20.709Z,100598.16
2022-11-29T22:21:52.432Z,100596.72
2022-11-29T22:24:24.558Z,100591.09
2022-11-29T22:26:55.613Z,100591.44
2022-11-29T22:29:24.676Z,100581.88
2022-11-29T22:31:56.577Z,100583.47
2022-11-29T22:34:27.074Z,100585.38
2022-11-29T22:36:56.004Z,100585.00
2022-11-29T22:39:25.861Z,100590.94
2022-11-29T22:41:55.340Z,100587.56
2022-11-29T22:44:25.551Z,100576.78
2022-11-29T22:46:54.429Z,100583.84
2022-11-29T22:49:22.885Z,100596.03
2022-11-29T22:51:52.455Z,100593.59
2022-11-29T22:54:20.844Z,100600.13
2022-11-29T22:56:50.605Z,100597.13
2022-11-29T22:59:19.159Z,100599.50
2022-11-29T23:01:47.728Z,100605.84
2022-11-29T23:04:17.832Z,100608.81
2022-11-29T23:06:47.795Z,100614.88
2022-11-29T23:09:20.227Z,100615.16
2022-11-29T23:11:56.304Z,100609.31
2022-11-29T23:14:25.512Z,100608.97
2022-11-29T23:16:54.195Z,100616.88
2022-11-29T23:19:22.838Z,100613.09
2022-11-29T23:21:56.346Z,100619.69
2022-11-29T23:24:25.159Z,100614.47
2022-11-29T23:26:56.101Z,100615.97
2022-11-29T23:29:25.611Z,100622.81
2022-11-29T23:31:53.977Z,100618.13
2022-11-29T23:34:22.847Z,100609.81
2022-11-29T23:36:53.230Z,100609.25
2022-11-29T23:39:22.000Z,100609.25
2022-11-29T23:41:50.515Z,100610.69
2022-11-29T23:44:20.570Z,100611.34
2022-11-29T23:46:48.698Z,100609.50
2022-11-29T23:49:16.951Z,100618.34
2022-11-29T23:51:46.748Z,100616.31
2022-11-29T23:54:15.541Z,100615.88
2022-11-29T23:56:46.260Z,100613.13
2022-11-29T23:59:14.706Z,100618.31
